sensor_id;sensor_type;location;lat;lon;timestamp;pressure;altitude;pressure_sealevel;temperature;humidity
56330;BME280;42236;48.058;10.632;2022-12-15T00:01:42;93278.22;;;-0.40;100.00
56330;BME280;42236;48.058;10.632;2022-12-15T00:04:46;93268.69;;;-0.41;100.00
56330;BME280;42236;48.058;10.632;2022-12-15T00:07:51;93258.69;;;-0.45;100.00
56330;BME280;42236;48.058;10.632;2022-12-15T00:10:55;93264.75;;;-0.53;100.00
56330;BME280;42236;48.058;10.632;2022-12-15T00:13:59;93277.66;;;-0.60;100.00
56330;BME280;42236;48.058;10.632;2022-12-15T00:17:04;93286.19;;;-0.63;100.00
56330;BME280;42236;48.058;10.632;2022-12-15T00:20:08;93285.09;;;-0.62;100.00
56330;BME280;42236;48.058;10.632;2022-12-15T00:23:13;93283.44;;;-0.58;100.00
56330;BME280;42236;48.058;10.632;2022-12-15T00:26:17;93285.41;;;-0.63;100.00
56330;BME280;42236;48.058;10.632;2022-12-15T00:29:21;93279.63;;;-0.66;100.00
56330;BME280;42236;48.058;10.632;2022-12-15T00:32:26;93281.63;;;-0.71;100.00
56330;BME280;42236;48.058;10.632;2022-12-15T00:35:30;93276.94;;;-0.74;100.00
56330;BME280;42236;48.058;10.632;2022-12-15T00:38:34;93282.84;;;-0.77;100.00
56330;BME280;42236;48.058;10.632;2022-12-15T00:41:29;93273.81;;;-0.76;100.00
56330;BME280;42236;48.058;10.632;2022-12-15T00:44:15;93284.53;;;-0.81;100.00
56330;BME280;42236;48.058;10.632;2022-12-15T00:47:00;93292.63;;;-0.78;100.00
56330;BME280;42236;48.058;10.632;2022-12-15T00:49:46;93296.88;;;-0.77;100.00
56330;BME280;42236;48.058;10.632;2022-12-15T00:52:50;93303.69;;;-0.84;100.00
56330;BME280;42236;48.058;10.632;2022-12-15T00:55:55;93305.84;;;-0.87;100.00
56330;BME280;42236;48.058;10.632;2022-12-15T00:58:59;93302.94;;;-0.76;100.00
56330;BME280;42236;48.058;10.632;2022-12-15T01:02:03;93308.88;;;-0.71;100.00
56330;BME280;42236;48.058;10.632;2022-12-15T01:05:07;93308.28;;;-0.68;100.00
56330;BME280;42236;48.058;10.632;2022-12-15T01:08:11;93305.66;;;-0.68;100.00
56330;BME280;42236;48.058;10.632;2022-12-15T01:11:16;93306.91;;;-0.65;100.00
56330;BME280;42236;48.058;10.632;2022-12-15T01:14:20;93310.63;;;-0.66;100.00
56330;BME280;42236;48.058;10.632;2022-12-15T01:17:25;93306.59;;;-0.63;100.00
56330;BME280;42236;48.058;10.632;2022-12-15T01:20:29;93322.66;;;-0.60;100.00
56330;BME280;42236;48.058;10.632;2022-12-15T01:23:18;93307.84;;;-0.61;100.00
56330;BME280;42236;48.058;10.632;2022-12-15T01:26:05;93317.84;;;-0.58;100.00
56330;BME280;42236;48.058;10.632;2022-12-15T01:28:51;93323.16;;;-0.58;100.00
56330;BME280;42236;48.058;10.632;2022-12-15T01:31:37;93327.84;;;-0.55;100.00
56330;BME280;42236;48.058;10.632;2022-12-15T01:34:22;93326.25;;;-0.56;100.00
56330;BME280;42236;48.058;10.632;2022-12-15T01:37:08;93328.81;;;-0.51;100.00
56330;BME280;42236;48.058;10.632;2022-12-15T01:39:54;93337.22;;;-0.49;100.00
56330;BME280;42236;48.058;10.632;2022-12-15T01:42:58;93348.28;;;-0.47;100.00
56330;BME280;42236;48.058;10.632;2022-12-15T01:45:59;93354.34;;;-0.46;100.00
56330;BME280;42236;48.058;10.632;2022-12-15T01:48:52;93359.50;;;-0.50;100.00
56330;BME280;42236;48.058;10.632;2022-12-15T01:51:42;93356.84;;;-0.50;100.00
56330;BME280;42236;48.058;10.632;2022-12-15T01:54:53;93362.63;;;-0.48;100.00
56330;BME280;42236;48.058;10.632;2022-12-15T01:57:42;93359.97;;;-0.48;100.00
56330;BME280;42236;48.058;10.632;2022-12-15T02:00:29;93366.47;;;-0.54;100.00
56330;BME280;42236;48.058;10.632;2022-12-15T02:03:15;93360.09;;;-0.53;100.00
56330;BME280;42236;48.058;10.632;2022-12-15T02:06:02;93365.09;;;-0.51;100.00
56330;BME280;42236;48.058;10.632;2022-12-15T02:08:49;93364.50;;;-0.48;100.00
56330;BME280;42236;48.058;10.632;2022-12-15T02:11:56;93364.31;;;-0.52;100.00
56330;BME280;42236;48.058;10.632;2022-12-15T02:18:27;93364.31;;;-0.52;100.00
56330;BME280;42236;48.058;10.632;2022-12-15T02:21:19;93371.63;;;-0.49;100.00
56330;BME280;42236;48.058;10.632;2022-12-15T02:27:07;93362.16;;;-0.50;100.00
56330;BME280;42236;48.058;10.632;2022-12-15T02:36:11;93365.97;;;-0.56;100.00
56330;BME280;42236;48.058;10.632;2022-12-15T02:39:00;93373.75;;;-0.59;100.00
56330;BME280;42236;48.058;10.632;2022-12-15T02:41:46;93373.56;;;-0.63;100.00
56330;BME280;42236;48.058;10.632;2022-12-15T02:44:43;93371.84;;;-0.68;100.00
56330;BME280;42236;48.058;10.632;2022-12-15T02:47:44;93374.78;;;-0.69;100.00
56330;BME280;42236;48.058;10.632;2022-12-15T02:50:54;93374.31;;;-0.71;100.00
56330;BME280;42236;48.058;10.632;2022-12-15T02:54:21;93386.75;;;-0.72;100.00
56330;BME280;42236;48.058;10.632;2022-12-15T02:57:17;93380.09;;;-0.69;100.00
56330;BME280;42236;48.058;10.632;2022-12-15T03:00:07;93382.25;;;-0.71;100.00
56330;BME280;42236;48.058;10.632;2022-12-15T03:02:54;93382.06;;;-0.75;100.00
56330;BME280;42236;48.058;10.632;2022-12-15T03:05:40;93389.94;;;-0.83;100.00
56330;BME280;42236;48.058;10.632;2022-12-15T03:08:26;93403.66;;;-0.81;100.00
56330;BME280;42236;48.058;10.632;2022-12-15T03:11:11;93398.38;;;-0.81;100.00
56330;BME280;42236;48.058;10.632;2022-12-15T03:13:57;93398.38;;;-0.81;100.00
56330;BME280;42236;48.058;10.632;2022-12-15T03:16:43;93398.97;;;-0.84;100.00
56330;BME280;42236;48.058;10.632;2022-12-15T03:19:29;93398.00;;;-0.89;100.00
56330;BME280;42236;48.058;10.632;2022-12-15T03:22:14;93394.25;;;-0.88;100.00
56330;BME280;42236;48.058;10.632;2022-12-15T03:25:00;93396.31;;;-0.84;100.00
56330;BME280;42236;48.058;10.632;2022-12-15T03:27:46;93406.44;;;-0.87;100.00
56330;BME280;42236;48.058;10.632;2022-12-15T03:30:31;93402.19;;;-0.88;100.00
56330;BME280;42236;48.058;10.632;2022-12-15T03:33:17;93407.00;;;-0.90;100.00
56330;BME280;42236;48.058;10.632;2022-12-15T03:36:03;93404.84;;;-0.88;100.00
56330;BME280;42236;48.058;10.632;2022-12-15T03:38:49;93409.38;;;-0.88;100.00
56330;BME280;42236;48.058;10.632;2022-12-15T03:41:35;93408.88;;;-0.90;100.00
56330;BME280;42236;48.058;10.632;2022-12-15T03:44:21;93418.69;;;-0.91;100.00
56330;BME280;42236;48.058;10.632;2022-12-15T03:47:06;93412.50;;;-0.86;100.00
56330;BME280;42236;48.058;10.632;2022-12-15T03:49:52;93420.16;;;-0.84;100.00
56330;BME280;42236;48.058;10.632;2022-12-15T03:52:38;93423.97;;;-0.91;100.00
56330;BME280;42236;48.058;10.632;2022-12-15T03:55:24;93419.41;;;-0.99;100.00
56330;BME280;42236;48.058;10.632;2022-12-15T03:58:10;93431.78;;;-1.08;100.00
56330;BME280;42236;48.058;10.632;2022-12-15T04:00:56;93417.66;;;-1.17;100.00
56330;BME280;42236;48.058;10.632;2022-12-15T04:03:41;93432.56;;;-1.21;100.00
56330;BME280;42236;48.058;10.632;2022-12-15T04:06:28;93412.00;;;-1.24;100.00
56330;BME280;42236;48.058;10.632;2022-12-15T04:09:14;93424.72;;;-1.26;100.00
56330;BME280;42236;48.058;10.632;2022-12-15T04:12:00;93416.50;;;-1.25;100.00
56330;BME280;42236;48.058;10.632;2022-12-15T04:14:47;93428.09;;;-1.35;100.00
56330;BME280;42236;48.058;10.632;2022-12-15T04:17:33;93416.03;;;-1.41;100.00
56330;BME280;42236;48.058;10.632;2022-12-15T04:20:20;93431.59;;;-1.53;100.00
56330;BME280;42236;48.058;10.632;2022-12-15T04:23:06;93425.81;;;-1.55;100.00
56330;BME280;42236;48.058;10.632;2022-12-15T04:25:52;93437.28;;;-1.60;100.00
56330;BME280;42236;48.058;10.632;2022-12-15T04:28:56;93436.88;;;-1.81;100.00
56330;BME280;42236;48.058;10.632;2022-12-15T04:32:01;93441.97;;;-1.84;100.00
56330;BME280;42236;48.058;10.632;2022-12-15T04:35:05;93439.22;;;-1.93;100.00
56330;BME280;42236;48.058;10.632;2022-12-15T04:38:10;93443.91;;;-1.90;100.00
56330;BME280;42236;48.058;10.632;2022-12-15T04:41:14;93454.50;;;-1.90;100.00
56330;BME280;42236;48.058;10.632;2022-12-15T04:44:20;93445.88;;;-1.82;100.00
56330;BME280;42236;48.058;10.632;2022-12-15T04:47:25;93445.19;;;-1.87;100.00
56330;BME280;42236;48.058;10.632;2022-12-15T04:50:38;93451.34;;;-1.92;100.00
56330;BME280;42236;48.058;10.632;2022-12-15T04:53:44;93446.66;;;-1.95;100.00
56330;BME280;42236;48.058;10.632;2022-12-15T04:57:09;93460.94;;;-1.96;100.00
56330;BME280;42236;48.058;10.632;2022-12-15T05:00:13;93452.44;;;-1.93;100.00
56330;BME280;42236;48.058;10.632;2022-12-15T05:03:17;93455.28;;;-1.89;100.00
56330;BME280;42236;48.058;10.632;2022-12-15T05:06:22;93455.50;;;-1.86;100.00
56330;BME280;42236;48.058;10.632;2022-12-15T05:13:08;93462.81;;;-1.83;100.00
56330;BME280;42236;48.058;10.632;2022-12-15T05:16:25;93467.63;;;-1.85;100.00
56330;BME280;42236;48.058;10.632;2022-12-15T05:19:29;93471.03;;;-1.84;100.00
56330;BME280;42236;48.058;10.632;2022-12-15T05:22:54;93468.75;;;-1.91;100.00
56330;BME280;42236;48.058;10.632;2022-12-15T05:25:58;93473.00;;;-1.90;100.00
56330;BME280;42236;48.058;10.632;2022-12-15T05:29:03;93468.56;;;-1.95;100.00
56330;BME280;42236;48.058;10.632;2022-12-15T05:32:07;93478.38;;;-1.95;100.00
56330;BME280;42236;48.058;10.632;2022-12-15T05:34:53;93487.53;;;-2.06;99.83
56330;BME280;42236;48.058;10.632;2022-12-15T05:37:42;93476.28;;;-2.12;100.00
56330;BME280;42236;48.058;10.632;2022-12-15T05:40:28;93494.78;;;-2.12;100.00
56330;BME280;42236;48.058;10.632;2022-12-15T05:43:13;93499.19;;;-2.07;100.00
56330;BME280;42236;48.058;10.632;2022-12-15T05:46:05;93494.41;;;-2.05;100.00
56330;BME280;42236;48.058;10.632;2022-12-15T05:48:51;93514.53;;;-2.09;100.00
56330;BME280;42236;48.058;10.632;2022-12-15T05:51:38;93516.06;;;-2.22;100.00
56330;BME280;42236;48.058;10.632;2022-12-15T05:54:24;93523.50;;;-2.24;100.00
56330;BME280;42236;48.058;10.632;2022-12-15T05:57:10;93529.75;;;-2.20;100.00
56330;BME280;42236;48.058;10.632;2022-12-15T05:59:56;93539.19;;;-2.14;100.00
56330;BME280;42236;48.058;10.632;2022-12-15T06:02:42;93532.53;;;-2.11;100.00
56330;BME280;42236;48.058;10.632;2022-12-15T06:05:27;93535.25;;;-2.17;100.00
56330;BME280;42236;48.058;10.632;2022-12-15T06:08:13;93525.97;;;-2.14;100.00
56330;BME280;42236;48.058;10.632;2022-12-15T06:10:59;93523.09;;;-2.18;100.00
56330;BME280;42236;48.058;10.632;2022-12-15T06:14:16;93517.47;;;-2.30;100.00
56330;BME280;42236;48.058;10.632;2022-12-15T06:17:02;93524.63;;;-2.30;100.00
56330;BME280;42236;48.058;10.632;2022-12-15T06:19:48;93524.19;;;-2.38;100.00
56330;BME280;42236;48.058;10.632;2022-12-15T06:22:34;93531.34;;;-2.38;100.00
56330;BME280;42236;48.058;10.632;2022-12-15T06:25:19;93525.47;;;-2.35;100.00
56330;BME280;42236;48.058;10.632;2022-12-15T06:28:08;93527.25;;;-2.30;100.00
56330;BME280;42236;48.058;10.632;2022-12-15T06:30:54;93523.63;;;-2.34;100.00
56330;BME280;42236;48.058;10.632;2022-12-15T06:33:40;93529.47;;;-2.38;100.00
56330;BME280;42236;48.058;10.632;2022-12-15T06:36:26;93533.22;;;-2.39;100.00
56330;BME280;42236;48.058;10.632;2022-12-15T06:39:14;93534.19;;;-2.34;100.00
56330;BME280;42236;48.058;10.632;2022-12-15T06:42:00;93527.63;;;-2.37;100.00
56330;BME280;42236;48.058;10.632;2022-12-15T06:44:45;93528.13;;;-2.35;100.00
56330;BME280;42236;48.058;10.632;2022-12-15T06:47:40;93545.81;;;-2.36;100.00
56330;BME280;42236;48.058;10.632;2022-12-15T06:50:26;93535.25;;;-2.36;100.00
56330;BME280;42236;48.058;10.632;2022-12-15T06:53:13;93541.25;;;-2.30;100.00
56330;BME280;42236;48.058;10.632;2022-12-15T06:59:35;93552.25;;;-2.23;100.00
56330;BME280;42236;48.058;10.632;2022-12-15T07:02:30;93558.59;;;-2.24;100.00
56330;BME280;42236;48.058;10.632;2022-12-15T07:05:17;93558.09;;;-2.26;100.00
56330;BME280;42236;48.058;10.632;2022-12-15T07:08:06;93553.56;;;-2.39;100.00
56330;BME280;42236;48.058;10.632;2022-12-15T07:10:51;93558.59;;;-2.43;100.00
56330;BME280;42236;48.058;10.632;2022-12-15T07:13:37;93553.97;;;-2.51;100.00
56330;BME280;42236;48.058;10.632;2022-12-15T07:16:24;93564.22;;;-2.49;100.00
56330;BME280;42236;48.058;10.632;2022-12-15T07:19:10;93550.97;;;-2.44;100.00
56330;BME280;42236;48.058;10.632;2022-12-15T07:21:58;93543.53;;;-2.42;100.00
56330;BME280;42236;48.058;10.632;2022-12-15T07:24:45;93543.97;;;-2.35;100.00
56330;BME280;42236;48.058;10.632;2022-12-15T07:27:31;93543.00;;;-2.39;100.00
56330;BME280;42236;48.058;10.632;2022-12-15T07:30:17;93542.59;;;-2.32;100.00
56330;BME280;42236;48.058;10.632;2022-12-15T07:33:03;93546.56;;;-2.49;100.00
56330;BME280;42236;48.058;10.632;2022-12-15T07:35:53;93545.69;;;-2.44;100.00
56330;BME280;42236;48.058;10.632;2022-12-15T07:38:39;93544.13;;;-2.45;100.00
56330;BME280;42236;48.058;10.632;2022-12-15T07:41:26;93548.28;;;-2.39;100.00
56330;BME280;42236;48.058;10.632;2022-12-15T07:44:12;93555.53;;;-2.31;100.00
56330;BME280;42236;48.058;10.632;2022-12-15T07:46:59;93550.69;;;-2.24;100.00
56330;BME280;42236;48.058;10.632;2022-12-15T07:49:45;93564.94;;;-2.25;100.00
56330;BME280;42236;48.058;10.632;2022-12-15T07:52:49;93568.09;;;-2.23;100.00
56330;BME280;42236;48.058;10.632;2022-12-15T07:55:35;93576.50;;;-2.21;100.00
56330;BME280;42236;48.058;10.632;2022-12-15T07:58:21;93580.41;;;-2.32;100.00
56330;BME280;42236;48.058;10.632;2022-12-15T08:01:10;93583.22;;;-2.28;100.00
56330;BME280;42236;48.058;10.632;2022-12-15T08:03:57;93582.22;;;-2.32;100.00
56330;BME280;42236;48.058;10.632;2022-12-15T08:06:43;93592.00;;;-2.33;100.00
56330;BME280;42236;48.058;10.632;2022-12-15T08:09:29;93592.78;;;-2.32;100.00
56330;BME280;42236;48.058;10.632;2022-12-15T08:12:16;93611.50;;;-2.29;100.00
56330;BME280;42236;48.058;10.632;2022-12-15T08:15:02;93612.09;;;-2.32;100.00
56330;BME280;42236;48.058;10.632;2022-12-15T08:17:48;93622.28;;;-2.25;100.00
56330;BME280;42236;48.058;10.632;2022-12-15T08:20:34;93620.81;;;-2.12;100.00
56330;BME280;42236;48.058;10.632;2022-12-15T08:23:20;93627.84;;;-2.08;100.00
56330;BME280;42236;48.058;10.632;2022-12-15T08:26:14;93625.94;;;-2.02;100.00
56330;BME280;42236;48.058;10.632;2022-12-15T08:29:01;93632.63;;;-1.91;100.00
56330;BME280;42236;48.058;10.632;2022-12-15T08:31:50;93636.78;;;-1.85;100.00
56330;BME280;42236;48.058;10.632;2022-12-15T08:34:37;93638.28;;;-1.79;100.00
56330;BME280;42236;48.058;10.632;2022-12-15T08:37:23;93636.63;;;-1.75;100.00
56330;BME280;42236;48.058;10.632;2022-12-15T08:40:09;93639.56;;;-1.76;100.00
56330;BME280;42236;48.058;10.632;2022-12-15T08:42:55;93634.28;;;-1.76;100.00
56330;BME280;42236;48.058;10.632;2022-12-15T08:45:40;93637.41;;;-1.74;100.00
56330;BME280;42236;48.058;10.632;2022-12-15T08:48:26;93632.91;;;-1.74;100.00
56330;BME280;42236;48.058;10.632;2022-12-15T08:51:13;93621.75;;;-1.70;100.00
56330;BME280;42236;48.058;10.632;2022-12-15T08:53:59;93616.47;;;-1.70;100.00
56330;BME280;42236;48.058;10.632;2022-12-15T08:56:45;93616.63;;;-1.81;100.00
56330;BME280;42236;48.058;10.632;2022-12-15T08:59:31;93637.19;;;-1.78;100.00
56330;BME280;42236;48.058;10.632;2022-12-15T09:02:17;93634.28;;;-1.76;100.00
56330;BME280;42236;48.058;10.632;2022-12-15T09:05:03;93612.53;;;-1.73;100.00
56330;BME280;42236;48.058;10.632;2022-12-15T09:07:59;93608.03;;;-1.73;100.00
56330;BME280;42236;48.058;10.632;2022-12-15T09:10:45;93604.91;;;-1.75;100.00
56330;BME280;42236;48.058;10.632;2022-12-15T09:13:31;93604.53;;;-1.68;100.00
56330;BME280;42236;48.058;10.632;2022-12-15T09:16:18;93608.47;;;-1.65;100.00
56330;BME280;42236;48.058;10.632;2022-12-15T09:19:04;93598.47;;;-1.68;100.00
56330;BME280;42236;48.058;10.632;2022-12-15T09:21:49;93600.75;;;-1.62;100.00
56330;BME280;42236;48.058;10.632;2022-12-15T09:24:35;93596.34;;;-1.53;100.00
56330;BME280;42236;48.058;10.632;2022-12-15T09:27:21;93598.91;;;-1.47;99.99
56330;BME280;42236;48.058;10.632;2022-12-15T09:30:07;93597.47;;;-1.40;100.00
56330;BME280;42236;48.058;10.632;2022-12-15T09:32:53;93587.84;;;-1.36;99.72
56330;BME280;42236;48.058;10.632;2022-12-15T09:35:39;93585.81;;;-1.39;99.82
56330;BME280;42236;48.058;10.632;2022-12-15T09:38:25;93577.78;;;-1.34;100.00
56330;BME280;42236;48.058;10.632;2022-12-15T09:44:06;93585.84;;;-1.11;99.25
56330;BME280;42236;48.058;10.632;2022-12-15T09:47:07;93587.31;;;-1.05;99.27
56330;BME280;42236;48.058;10.632;2022-12-15T09:49:57;93591.63;;;-0.95;99.52
56330;BME280;42236;48.058;10.632;2022-12-15T09:52:47;93581.25;;;-0.92;98.85
56330;BME280;42236;48.058;10.632;2022-12-15T09:55:33;93588.09;;;-0.91;98.69
56330;BME280;42236;48.058;10.632;2022-12-15T09:58:32;93592.91;;;-0.93;98.28
56330;BME280;42236;48.058;10.632;2022-12-15T10:01:40;93584.88;;;-0.88;98.37
56330;BME280;42236;48.058;10.632;2022-12-15T10:04:36;93589.00;;;-0.81;98.62
56330;BME280;42236;48.058;10.632;2022-12-15T10:07:38;93581.06;;;-0.81;97.68
56330;BME280;42236;48.058;10.632;2022-12-15T10:10:42;93569.97;;;-0.83;97.86
56330;BME280;42236;48.058;10.632;2022-12-15T10:13:51;93563.91;;;-0.84;98.28
56330;BME280;42236;48.058;10.632;2022-12-15T10:22:39;93549.16;;;-0.76;98.20
56330;BME280;42236;48.058;10.632;2022-12-15T10:25:29;93549.28;;;-0.68;98.45
56330;BME280;42236;48.058;10.632;2022-12-15T10:31:10;93518.84;;;-0.70;97.97
56330;BME280;42236;48.058;10.632;2022-12-15T10:34:08;93504.13;;;-0.62;98.77
56330;BME280;42236;48.058;10.632;2022-12-15T10:36:55;93510.47;;;-0.50;98.42
56330;BME280;42236;48.058;10.632;2022-12-15T10:39:43;93513.53;;;-0.70;97.05
56330;BME280;42236;48.058;10.632;2022-12-15T10:42:29;93526.22;;;-0.67;97.79
56330;BME280;42236;48.058;10.632;2022-12-15T10:45:34;93530.31;;;-0.61;98.29
56330;BME280;42236;48.058;10.632;2022-12-15T10:48:22;93528.13;;;-0.45;98.62
56330;BME280;42236;48.058;10.632;2022-12-15T10:51:25;93521.34;;;-0.51;96.92
56330;BME280;42236;48.058;10.632;2022-12-15T10:54:15;93521.31;;;-0.60;97.40
56330;BME280;42236;48.058;10.632;2022-12-15T10:57:24;93513.03;;;-0.58;97.82
56330;BME280;42236;48.058;10.632;2022-12-15T11:02:59;93501.56;;;-0.54;97.78
56330;BME280;42236;48.058;10.632;2022-12-15T11:05:53;93516.78;;;-0.59;97.75
56330;BME280;42236;48.058;10.632;2022-12-15T11:08:40;93516.25;;;-0.48;98.20
56330;BME280;42236;48.058;10.632;2022-12-15T11:11:28;93509.50;;;-0.54;97.07
56330;BME280;42236;48.058;10.632;2022-12-15T11:14:46;93505.19;;;-0.50;98.02
56330;BME280;42236;48.058;10.632;2022-12-15T11:17:39;93497.00;;;-0.39;97.91
56330;BME280;42236;48.058;10.632;2022-12-15T11:20:33;93504.25;;;-0.31;97.37
56330;BME280;42236;48.058;10.632;2022-12-15T11:26:29;93509.44;;;-0.26;96.67
56330;BME280;42236;48.058;10.632;2022-12-15T11:32:22;93512.41;;;-0.41;96.83
56330;BME280;42236;48.058;10.632;2022-12-15T11:35:14;93516.81;;;-0.37;97.12
56330;BME280;42236;48.058;10.632;2022-12-15T11:38:10;93514.00;;;-0.40;96.97
56330;BME280;42236;48.058;10.632;2022-12-15T11:47:42;93500.59;;;-0.58;97.17
56330;BME280;42236;48.058;10.632;2022-12-15T11:50:49;93497.75;;;-0.61;97.99
56330;BME280;42236;48.058;10.632;2022-12-15T12:05:35;93454.09;;;-0.87;98.99
56330;BME280;42236;48.058;10.632;2022-12-15T12:11:44;93432.00;;;-1.18;99.52
56330;BME280;42236;48.058;10.632;2022-12-15T12:14:55;93423.22;;;-1.05;99.68
56330;BME280;42236;48.058;10.632;2022-12-15T12:17:48;93415.31;;;-1.19;99.46
56330;BME280;42236;48.058;10.632;2022-12-15T12:20:52;93421.47;;;-1.10;99.77
56330;BME280;42236;48.058;10.632;2022-12-15T12:24:01;93430.56;;;-1.02;99.85
56330;BME280;42236;48.058;10.632;2022-12-15T12:27:04;93439.38;;;-1.07;99.64
56330;BME280;42236;48.058;10.632;2022-12-15T12:30:02;93440.59;;;-1.13;99.45
56330;BME280;42236;48.058;10.632;2022-12-15T12:32:59;93444.69;;;-1.07;99.81
56330;BME280;42236;48.058;10.632;2022-12-15T12:36:10;93445.50;;;-1.06;99.38
56330;BME280;42236;48.058;10.632;2022-12-15T12:38:56;93453.00;;;-0.99;99.41
56330;BME280;42236;48.058;10.632;2022-12-15T12:44:37;93461.88;;;-1.18;99.68
56330;BME280;42236;48.058;10.632;2022-12-15T12:47:29;93461.38;;;-1.20;100.00
56330;BME280;42236;48.058;10.632;2022-12-15T12:50:24;93463.75;;;-1.18;100.00
56330;BME280;42236;48.058;10.632;2022-12-15T12:53:25;93448.38;;;-1.30;100.00
56330;BME280;42236;48.058;10.632;2022-12-15T13:10:51;93440.41;;;-1.58;100.00
56330;BME280;42236;48.058;10.632;2022-12-15T13:13:42;93440.63;;;-1.54;100.00
56330;BME280;42236;48.058;10.632;2022-12-15T13:16:30;93442.28;;;-1.58;100.00
56330;BME280;42236;48.058;10.632;2022-12-15T13:22:41;93411.44;;;-1.49;100.00
56330;BME280;42236;48.058;10.632;2022-12-15T13:25:40;93412.03;;;-1.52;100.00
56330;BME280;42236;48.058;10.632;2022-12-15T13:31:24;93406.75;;;-1.52;100.00
56330;BME280;42236;48.058;10.632;2022-12-15T13:34:14;93403.59;;;-1.54;100.00
56330;BME280;42236;48.058;10.632;2022-12-15T13:37:01;93406.75;;;-1.52;100.00
56330;BME280;42236;48.058;10.632;2022-12-15T13:39:54;93404.38;;;-1.54;100.00
56330;BME280;42236;48.058;10.632;2022-12-15T13:42:39;93400.84;;;-1.49;100.00
56330;BME280;42236;48.058;10.632;2022-12-15T13:45:58;93401.25;;;-1.42;100.00
56330;BME280;42236;48.058;10.632;2022-12-15T13:48:46;93394.97;;;-1.46;100.00
56330;BME280;42236;48.058;10.632;2022-12-15T13:51:43;93395.56;;;-1.77;100.00
56330;BME280;42236;48.058;10.632;2022-12-15T13:54:33;93380.91;;;-1.69;100.00
56330;BME280;42236;48.058;10.632;2022-12-15T13:57:22;93386.34;;;-1.79;100.00
56330;BME280;42236;48.058;10.632;2022-12-15T14:00:14;93382.44;;;-1.82;100.00
56330;BME280;42236;48.058;10.632;2022-12-15T14:03:10;93391.16;;;-1.81;100.00
56330;BME280;42236;48.058;10.632;2022-12-15T14:05:58;93405.19;;;-1.81;100.00
56330;BME280;42236;48.058;10.632;2022-12-15T14:08:44;93399.69;;;-1.84;100.00
56330;BME280;42236;48.058;10.632;2022-12-15T14:11:33;93394.69;;;-1.86;100.00
56330;BME280;42236;48.058;10.632;2022-12-15T14:14:26;93383.53;;;-1.83;100.00
56330;BME280;42236;48.058;10.632;2022-12-15T14:17:15;93382.94;;;-1.80;100.00
56330;BME280;42236;48.058;10.632;2022-12-15T14:20:10;93387.72;;;-1.82;100.00
56330;BME280;42236;48.058;10.632;2022-12-15T14:22:56;93386.97;;;-1.68;100.00
56330;BME280;42236;48.058;10.632;2022-12-15T14:25:51;93381.28;;;-1.76;100.00
56330;BME280;42236;48.058;10.632;2022-12-15T14:28:45;93372.09;;;-1.78;100.00
56330;BME280;42236;48.058;10.632;2022-12-15T14:31:32;93362.78;;;-1.89;100.00
56330;BME280;42236;48.058;10.632;2022-12-15T14:34:44;93360.72;;;-1.92;100.00
56330;BME280;42236;48.058;10.632;2022-12-15T14:37:30;93369.22;;;-1.82;100.00
56330;BME280;42236;48.058;10.632;2022-12-15T14:40:17;93373.47;;;-1.81;100.00
56330;BME280;42236;48.058;10.632;2022-12-15T14:43:04;93363.84;;;-1.77;100.00
56330;BME280;42236;48.058;10.632;2022-12-15T14:46:07;93367.38;;;-1.67;100.00
56330;BME280;42236;48.058;10.632;2022-12-15T14:48:59;93365.53;;;-1.81;100.00
56330;BME280;42236;48.058;10.632;2022-12-15T14:51:50;93364.81;;;-1.86;100.00
56330;BME280;42236;48.058;10.632;2022-12-15T14:55:01;93367.56;;;-1.91;100.00
56330;BME280;42236;48.058;10.632;2022-12-15T14:58:28;93353.28;;;-1.90;100.00
56330;BME280;42236;48.058;10.632;2022-12-15T15:01:28;93353.78;;;-2.02;100.00
56330;BME280;42236;48.058;10.632;2022-12-15T15:04:29;93349.94;;;-1.96;100.00
56330;BME280;42236;48.058;10.632;2022-12-15T15:07:43;93345.38;;;-1.90;100.00
56330;BME280;42236;48.058;10.632;2022-12-15T15:10:30;93344.28;;;-1.89;100.00
56330;BME280;42236;48.058;10.632;2022-12-15T15:13:22;93353.06;;;-1.94;100.00
56330;BME280;42236;48.058;10.632;2022-12-15T15:16:17;93357.38;;;-1.98;100.00
56330;BME280;42236;48.058;10.632;2022-12-15T15:19:04;93363.88;;;-1.90;100.00
56330;BME280;42236;48.058;10.632;2022-12-15T15:28:23;93358.38;;;-1.94;100.00
56330;BME280;42236;48.058;10.632;2022-12-15T15:34:10;93357.47;;;-2.03;100.00
56330;BME280;42236;48.058;10.632;2022-12-15T15:36:55;93353.78;;;-2.02;100.00
56330;BME280;42236;48.058;10.632;2022-12-15T15:39:41;93365.41;;;-2.03;100.00
56330;BME280;42236;48.058;10.632;2022-12-15T15:42:27;93360.31;;;-2.00;100.00
56330;BME280;42236;48.058;10.632;2022-12-15T15:45:14;93353.88;;;-2.07;100.00
56330;BME280;42236;48.058;10.632;2022-12-15T15:48:15;93362.56;;;-2.07;100.00
56330;BME280;42236;48.058;10.632;2022-12-15T15:51:15;93362.84;;;-2.08;100.00
56330;BME280;42236;48.058;10.632;2022-12-15T15:54:06;93358.56;;;-2.04;100.00
56330;BME280;42236;48.058;10.632;2022-12-15T15:56:55;93346.03;;;-2.12;100.00
56330;BME280;42236;48.058;10.632;2022-12-15T16:03:23;93330.75;;;-2.16;100.00
56330;BME280;42236;48.058;10.632;2022-12-15T16:06:27;93319.41;;;-2.30;100.00
56330;BME280;42236;48.058;10.632;2022-12-15T16:09:14;93318.25;;;-2.24;100.00
56330;BME280;42236;48.058;10.632;2022-12-15T16:12:00;93324.69;;;-2.16;100.00
56330;BME280;42236;48.058;10.632;2022-12-15T16:14:46;93318.81;;;-2.13;100.00
56330;BME280;42236;48.058;10.632;2022-12-15T16:17:57;93322.94;;;-2.21;100.00
56330;BME280;42236;48.058;10.632;2022-12-15T16:20:45;93320.97;;;-2.15;100.00
56330;BME280;42236;48.058;10.632;2022-12-15T16:23:32;93327.84;;;-2.14;100.00
56330;BME280;42236;48.058;10.632;2022-12-15T16:26:36;93323.91;;;-2.17;100.00
56330;BME280;42236;48.058;10.632;2022-12-15T16:29:23;93326.44;;;-2.25;100.00
56330;BME280;42236;48.058;10.632;2022-12-15T16:32:09;93333.09;;;-2.28;100.00